Terminal Aerodrome Forecast
Issued by NWS

Home | Current Version | Previous Version | Text Only | Print | Product List | Glossary On
Versions: 1 2 3 4 5 6 7 8 9 10 11 12 13 14 15
000
FTUS41 KBTV 122335
TAFMPV
TAF
KMPV 122335Z 1300/1324 VRB03KT 1 1/2SM -SN BR OVC015
      TEMPO 1300/1304 3/4SM -SN BR BKN008
     FM130400 31007KT 2SM -SHSN BR SCT015 OVC025
     FM131100 31012G18KT 4SM -SHSN BR OVC025
     FM131800 29015G24KT P6SM VCSH OVC025=

USA.gov is the U.S. government's official web portal to all federal, state and local government web resources and services.